Terminal Aerodrome Forecast
Issued by NWS

Home | Current Version | Previous Version | Text Only | Print | Product List | Glossary On
Versions: 1 2 3 4 5 6 7 8 9 10 11 12 13
000
FTUS46 KSGX 281141
TAFONT
TAF
KONT 281141Z 2812/0118 24008KT P6SM VCSH SCT025 OVC035
     FM281800 24015G25KT P6SM VCSH SCT025 BKN035 OVC050
     FM010000 25012KT 5SM -SHRA BR SCT015 BKN025 OVC035
     FM011200 25005KT P6SM SCT025 BKN100=

USA.gov is the U.S. government's official web portal to all federal, state and local government web resources and services.